Skip Navigation LinksHome page > Weather > Current weather Skip Navigation Links

Current Weather

Pearson Intl. Apt., Toronto, Ont.

For information only: do not use for flight planning or navigation.
Latest weather
Observation time Monday, November 29, 2021 4:17 PM EST
Local time Monday, November 29, 2021 5:07 PM EST
Flight conditions Visual Meteorological Conditions
Winds
Wind direction South-Southwest (200°)
Winds variable from 160° to 230°
Wind speed 3 mph
Visibility 15 mi.
Sky condition
Ceiling 6,100 ft. overcast
Cloud layer few clouds 2,500 ft.
Cloud layer overcast 6,100 ft.
Temperature 32°F
Dewpoint 27°F
Altimeter 29.97 in.Hg
Derived measurements
Relative humidity 80%
Wind chill 29°F
Density altitude -1246 ft.
Sea-level pressure 30.00 in.Hg
Remarks
Special weather observation.
METAR SPECI CYYZ 292117Z 20003KT 160V230 15SM FEW025 OVC061 M00/M03 A2997 RMK SC1SC7 SLP158

Settings

Location code

InnerDrive.Weather 4.0.6770.0 Release CLR 4.0.30319.42000
Copyright ©2018 Inner Drive Technology. All rights reserved. Portions Copyright ©1986-2018 David Braverman.

Find weather

Site navigation


Skip Navigation Links

Place info

Page info

PayPal - The safer, easier way to pay online!

Return home.

Copyright ©2021 Inner Drive Technology. Purveyors of fine, hand-crafted computer software. Page printed 2021-11-29T22:07:25 UTC.